createdAt,value
2019-05-25T00:00:30.031Z,61.14
2019-05-25T00:03:00.344Z,61.23
2019-05-25T00:05:30.772Z,61.29
2019-05-25T00:08:02.409Z,61.35
2019-05-25T00:10:32.805Z,61.43
2019-05-25T00:13:03.172Z,61.46
2019-05-25T00:15:33.481Z,61.52
2019-05-25T00:18:04.150Z,61.55
2019-05-25T00:20:34.417Z,61.60
2019-05-25T00:23:04.747Z,61.68
2019-05-25T00:25:35.124Z,61.72
2019-05-25T00:28:05.440Z,61.78
2019-05-25T00:30:35.784Z,61.82
2019-05-25T00:33:06.499Z,61.86
2019-05-25T00:35:38.171Z,61.91
2019-05-25T00:38:08.464Z,61.92
2019-05-25T00:40:40.348Z,61.94
2019-05-25T00:43:10.636Z,61.99
2019-05-25T00:45:40.888Z,62.03
2019-05-25T00:48:11.624Z,62.04
2019-05-25T00:50:41.944Z,62.09
2019-05-25T00:53:12.751Z,62.13
2019-05-25T00:55:45.228Z,62.18
2019-05-25T00:58:15.715Z,62.22
2019-05-25T01:00:46.428Z,62.25
2019-05-25T01:03:17.808Z,62.29
2019-05-25T01:05:50.705Z,62.35
2019-05-25T01:08:21.036Z,62.37
2019-05-25T01:10:51.348Z,62.42
2019-05-25T01:13:21.764Z,62.44
2019-05-25T01:15:52.068Z,62.47
2019-05-25T01:18:22.507Z,62.50
2019-05-25T01:20:52.923Z,62.56
2019-05-25T01:23:25.637Z,62.58
2019-05-25T01:25:55.957Z,62.63
2019-05-25T01:28:30.188Z,62.69
2019-05-25T01:31:00.616Z,62.72
2019-05-25T01:33:32.159Z,62.75
2019-05-25T01:36:02.531Z,62.79
2019-05-25T01:38:32.852Z,62.83
2019-05-25T01:41:03.227Z,62.88
2019-05-25T01:43:33.953Z,62.91
2019-05-25T01:46:04.236Z,62.96
2019-05-25T01:48:34.548Z,63.02
2019-05-25T01:51:04.883Z,63.07
2019-05-25T01:53:35.466Z,63.12
2019-05-25T01:56:06.451Z,63.16
2019-05-25T01:58:37.205Z,63.20
2019-05-25T02:01:08.292Z,63.27
2019-05-25T02:03:39.299Z,63.30
2019-05-25T02:06:09.902Z,63.34
2019-05-25T02:08:40.760Z,63.40
2019-05-25T02:11:12.929Z,63.44
2019-05-25T02:13:45.270Z,63.48
2019-05-25T02:16:19.364Z,63.54
2019-05-25T02:18:50.159Z,63.60
2019-05-25T02:21:21.180Z,63.64
2019-05-25T02:23:51.522Z,63.67
2019-05-25T02:26:21.816Z,63.70
2019-05-25T02:28:52.296Z,63.78
2019-05-25T02:31:25.375Z,63.80
2019-05-25T02:33:58.548Z,63.85
2019-05-25T02:36:28.951Z,63.92
2019-05-25T02:39:00.123Z,63.96
2019-05-25T02:41:31.917Z,64.01
2019-05-25T02:44:02.270Z,64.05
2019-05-25T02:46:36.953Z,64.09
2019-05-25T02:49:08.853Z,64.13
2019-05-25T02:51:40.168Z,64.17
2019-05-25T02:54:10.515Z,64.21
2019-05-25T02:56:44.460Z,64.27
2019-05-25T02:59:14.787Z,64.32
2019-05-25T03:01:45.127Z,64.38
2019-05-25T03:04:21.392Z,64.41
2019-05-25T03:06:55.362Z,64.46
2019-05-25T03:09:28.926Z,64.53
2019-05-25T03:12:02.308Z,64.56
2019-05-25T03:14:34.369Z,64.60
2019-05-25T03:17:05.612Z,64.66
2019-05-25T03:19:36.584Z,64.70
2019-05-25T03:22:07.221Z,64.75
2019-05-25T03:24:37.542Z,64.79
2019-05-25T03:27:08.622Z,64.84
2019-05-25T03:29:41.375Z,64.90
2019-05-25T03:32:12.660Z,64.93
2019-05-25T03:34:43.955Z,64.96
2019-05-25T03:37:15.882Z,64.99
2019-05-25T03:39:47.421Z,65.03
2019-05-25T03:42:18.080Z,65.05
2019-05-25T03:44:48.487Z,65.12
2019-05-25T03:47:18.800Z,65.14
2019-05-25T03:49:51.287Z,65.19
2019-05-25T03:52:21.919Z,65.26
2019-05-25T03:54:53.396Z,65.32
2019-05-25T03:57:25.362Z,65.36
2019-05-25T04:00:00.032Z,65.41
2019-05-25T04:02:30.336Z,65.45
2019-05-25T04:05:02.497Z,65.48
2019-05-25T04:07:39.078Z,65.52
2019-05-25T04:10:09.801Z,65.59
2019-05-25T04:12:42.438Z,65.65
2019-05-25T04:15:13.191Z,65.71
2019-05-25T04:17:46.075Z,65.76
2019-05-25T04:20:18.705Z,65.81
2019-05-25T04:22:51.658Z,65.86
2019-05-25T04:25:22.087Z,65.89
2019-05-25T04:27:56.219Z,65.97
2019-05-25T04:30:27.703Z,66.00
2019-05-25T04:32:58.421Z,66.07
2019-05-25T04:35:28.752Z,66.11
2019-05-25T04:37:59.416Z,66.15
2019-05-25T04:40:29.745Z,66.23
2019-05-25T04:43:02.633Z,66.25
2019-05-25T04:45:33.134Z,66.30
2019-05-25T04:48:07.188Z,66.35
2019-05-25T04:50:41.406Z,66.40
2019-05-25T04:53:12.293Z,66.44
2019-05-25T04:55:45.717Z,66.48
2019-05-25T04:58:17.229Z,66.52
2019-05-25T05:00:48.026Z,66.54
2019-05-25T05:03:19.400Z,66.57
2019-05-25T05:05:50.547Z,66.63
2019-05-25T05:08:23.410Z,66.66
2019-05-25T05:10:53.812Z,66.67
2019-05-25T05:13:25.787Z,66.72
2019-05-25T05:15:56.453Z,66.75
2019-05-25T05:18:27.140Z,66.80
2019-05-25T05:20:57.965Z,66.84
2019-05-25T05:23:28.284Z,66.90
2019-05-25T05:25:58.611Z,66.93
2019-05-25T05:28:28.973Z,66.95
2019-05-25T05:30:59.310Z,67.00
2019-05-25T05:33:33.331Z,67.05
2019-05-25T05:36:05.992Z,67.05
2019-05-25T05:38:37.453Z,67.08
2019-05-25T05:41:09.310Z,67.14
2019-05-25T05:43:41.647Z,67.15
2019-05-25T05:46:13.750Z,67.17
2019-05-25T05:48:47.835Z,67.22
2019-05-25T05:51:20.973Z,67.22
2019-05-25T05:53:56.132Z,67.23
2019-05-25T05:56:27.338Z,67.25
2019-05-25T05:58:57.630Z,67.27
2019-05-25T06:01:28.209Z,67.30
2019-05-25T06:03:58.919Z,67.32
2019-05-25T06:06:33.424Z,67.37
2019-05-25T06:09:07.056Z,67.42
2019-05-25T06:11:37.707Z,67.48
2019-05-25T06:14:08.048Z,67.53
2019-05-25T06:16:43.154Z,67.53
2019-05-25T06:19:13.895Z,67.55
2019-05-25T06:21:44.207Z,67.59
2019-05-25T06:24:17.831Z,67.67
2019-05-25T06:26:48.138Z,67.72
2019-05-25T06:29:18.431Z,67.78
2019-05-25T06:31:49.075Z,67.82
2019-05-25T06:34:27.197Z,67.89
2019-05-25T06:36:57.518Z,67.91
2019-05-25T06:39:27.992Z,67.95
2019-05-25T06:41:58.619Z,67.93
2019-05-25T06:44:29.237Z,67.96
2019-05-25T06:46:59.821Z,67.96
2019-05-25T06:49:30.149Z,67.96
2019-05-25T06:52:00.467Z,67.96
2019-05-25T06:54:31.128Z,67.94
2019-05-25T06:57:01.526Z,67.95
2019-05-25T06:59:32.950Z,67.99
2019-05-25T07:02:03.973Z,67.98
2019-05-25T07:04:34.355Z,68.00
2019-05-25T07:07:04.666Z,68.02
2019-05-25T07:09:34.998Z,68.06
2019-05-25T07:12:08.191Z,68.10
2019-05-25T07:14:38.753Z,68.15
2019-05-25T07:17:10.703Z,68.19
2019-05-25T07:19:45.881Z,68.18
2019-05-25T07:22:17.078Z,68.20
2019-05-25T07:24:48.193Z,68.23
2019-05-25T07:27:18.576Z,68.24
2019-05-25T07:29:48.993Z,68.25
2019-05-25T07:32:19.791Z,68.26
2019-05-25T07:34:50.212Z,68.29
2019-05-25T07:37:20.644Z,68.32
2019-05-25T07:39:52.947Z,68.33
2019-05-25T07:42:23.463Z,68.38
2019-05-25T07:44:54.032Z,68.41
2019-05-25T07:47:24.383Z,68.43
2019-05-25T07:49:54.658Z,68.42
2019-05-25T07:52:25.999Z,68.46
2019-05-25T07:55:01.131Z,68.47
2019-05-25T07:57:32.029Z,68.47
2019-05-25T08:00:02.438Z,68.52
2019-05-25T08:02:33.238Z,68.53
2019-05-25T08:05:03.939Z,68.50
2019-05-25T08:07:34.244Z,68.52
2019-05-25T08:10:06.517Z,68.52
2019-05-25T08:12:36.886Z,68.52
2019-05-25T08:15:08.135Z,68.53
2019-05-25T08:17:40.064Z,68.55
2019-05-25T08:20:12.433Z,68.57
2019-05-25T08:22:44.146Z,68.57
2019-05-25T08:25:15.340Z,68.58
2019-05-25T08:27:45.701Z,68.57
2019-05-25T08:30:16.146Z,68.59
2019-05-25T08:32:55.298Z,68.61
2019-05-25T08:35:25.694Z,68.65
2019-05-25T08:37:57.972Z,68.70
2019-05-25T08:40:28.232Z,68.70
2019-05-25T08:42:58.711Z,68.72
2019-05-25T08:45:29.895Z,68.79
2019-05-25T08:48:00.523Z,68.87
2019-05-25T08:50:38.141Z,68.94
2019-05-25T08:53:08.804Z,68.97
2019-05-25T08:55:39.458Z,69.01
2019-05-25T08:58:11.157Z,69.02
2019-05-25T09:00:41.421Z,69.05
2019-05-25T09:03:12.586Z,69.03
2019-05-25T09:05:45.361Z,69.03
2019-05-25T09:08:15.671Z,69.02
2019-05-25T09:10:49.716Z,69.02
2019-05-25T09:13:20.294Z,69.05
2019-05-25T09:15:50.700Z,69.06
2019-05-25T09:18:26.308Z,69.06
2019-05-25T09:20:56.742Z,69.09
2019-05-25T09:23:28.824Z,69.06
2019-05-25T09:25:59.135Z,69.08
2019-05-25T09:28:29.845Z,69.11
2019-05-25T09:31:01.009Z,69.12
2019-05-25T09:33:31.543Z,69.17
2019-05-25T09:36:02.027Z,69.23
2019-05-25T09:38:32.322Z,69.29
2019-05-25T09:41:04.081Z,69.37
2019-05-25T09:43:34.513Z,69.44
2019-05-25T09:46:04.934Z,69.47
2019-05-25T09:48:38.195Z,69.50
2019-05-25T09:51:15.269Z,69.55
2019-05-25T09:53:40.750Z,69.60
2019-05-25T09:56:13.476Z,69.62
2019-05-25T09:58:43.774Z,69.60
2019-05-25T10:01:16.143Z,69.64
2019-05-25T10:03:46.438Z,69.68
2019-05-25T10:06:19.917Z,69.70
2019-05-25T10:08:51.381Z,69.66
2019-05-25T10:11:22.143Z,69.66
2019-05-25T10:13:52.446Z,69.57
2019-05-25T10:16:23.143Z,69.58
2019-05-25T10:18:53.453Z,69.66
2019-05-25T10:21:25.189Z,69.84
2019-05-25T10:23:55.791Z,70.31
2019-05-25T10:26:27.542Z,70.40
2019-05-25T10:28:57.849Z,70.42
2019-05-25T10:31:28.730Z,70.33
2019-05-25T10:33:59.173Z,70.26
2019-05-25T10:36:31.563Z,70.15
2019-05-25T10:39:01.861Z,70.12
2019-05-25T10:41:32.839Z,70.11
2019-05-25T10:44:05.253Z,70.08
2019-05-25T10:46:35.865Z,70.02
2019-05-25T10:49:06.224Z,69.95
2019-05-25T10:51:36.700Z,69.89
2019-05-25T10:54:06.994Z,69.84
2019-05-25T10:56:38.789Z,69.81
2019-05-25T10:59:14.698Z,69.75
2019-05-25T11:01:42.068Z,69.73
2019-05-25T11:04:15.236Z,69.70
2019-05-25T11:06:45.509Z,69.69
2019-05-25T11:09:16.363Z,69.72
2019-05-25T11:11:46.748Z,69.72
2019-05-25T11:14:17.304Z,69.74
2019-05-25T11:16:52.249Z,69.72
2019-05-25T11:19:24.352Z,69.69
2019-05-25T11:21:54.964Z,69.66
2019-05-25T11:24:25.744Z,69.64
2019-05-25T11:26:59.577Z,69.61
2019-05-25T11:29:28.636Z,69.69
2019-05-25T11:32:05.018Z,69.78
2019-05-25T11:34:36.802Z,69.71
2019-05-25T11:37:07.125Z,69.76
2019-05-25T11:39:39.790Z,69.87
2019-05-25T11:42:12.309Z,69.81
2019-05-25T11:44:42.709Z,69.76
2019-05-25T11:47:13.088Z,69.65
2019-05-25T11:49:44.483Z,69.52
2019-05-25T11:52:14.875Z,69.71
2019-05-25T11:54:45.213Z,69.77
2019-05-25T11:57:15.931Z,69.78
2019-05-25T11:59:46.309Z,69.88
2019-05-25T12:02:19.643Z,69.93
2019-05-25T12:04:50.182Z,70.02
2019-05-25T12:07:22.081Z,69.97
2019-05-25T12:09:52.474Z,69.96
2019-05-25T12:12:24.812Z,69.82
2019-05-25T12:14:56.457Z,69.73
2019-05-25T12:17:28.408Z,69.64
2019-05-25T12:20:01.079Z,69.64
2019-05-25T12:22:32.670Z,69.65
2019-05-25T12:25:08.539Z,69.58
2019-05-25T12:27:39.061Z,69.50
2019-05-25T12:30:13.285Z,69.45
2019-05-25T12:32:43.947Z,69.36
2019-05-25T12:35:14.373Z,69.24
2019-05-25T12:37:44.739Z,69.21
2019-05-25T12:40:16.291Z,69.17
2019-05-25T12:42:51.953Z,69.17
2019-05-25T12:45:23.951Z,69.17
2019-05-25T12:47:55.250Z,69.09
2019-05-25T12:50:26.518Z,69.02
2019-05-25T12:52:56.854Z,68.96
2019-05-25T12:55:27.445Z,68.91
2019-05-25T12:57:57.836Z,68.91
2019-05-25T13:00:29.314Z,68.94
2019-05-25T13:02:59.639Z,68.92
2019-05-25T13:05:34.709Z,68.92
2019-05-25T13:08:09.503Z,68.98
2019-05-25T13:10:39.871Z,68.94
2019-05-25T13:13:12.361Z,68.86
2019-05-25T13:15:43.135Z,68.77
2019-05-25T13:18:15.044Z,68.65
2019-05-25T13:20:47.928Z,68.61
2019-05-25T13:23:18.306Z,68.49
2019-05-25T13:25:51.571Z,68.63
2019-05-25T13:28:25.571Z,68.69
2019-05-25T13:31:10.488Z,68.56
2019-05-25T13:33:27.968Z,68.59
2019-05-25T13:35:58.262Z,68.47
2019-05-25T13:38:28.665Z,68.67
2019-05-25T13:41:00.587Z,68.57
2019-05-25T13:43:33.902Z,68.51
2019-05-25T13:46:06.135Z,68.37
2019-05-25T13:48:37.607Z,68.27
2019-05-25T13:51:13.112Z,68.09
2019-05-25T13:53:43.450Z,68.07
2019-05-25T13:56:14.079Z,68.18
2019-05-25T13:58:44.637Z,68.25
2019-05-25T14:01:28.123Z,68.21
2019-05-25T14:03:47.084Z,68.24
2019-05-25T14:06:17.382Z,68.25
2019-05-25T14:08:47.729Z,68.13
2019-05-25T14:11:18.646Z,68.17
2019-05-25T14:13:49.218Z,68.13
2019-05-25T14:16:21.237Z,68.04
2019-05-25T14:18:51.616Z,67.86
2019-05-25T14:21:21.955Z,67.71
2019-05-25T14:23:52.383Z,67.61
2019-05-25T14:26:22.720Z,67.54
2019-05-25T14:28:53.183Z,67.43
2019-05-25T14:31:23.656Z,67.30
2019-05-25T14:33:55.313Z,67.23
2019-05-25T14:36:27.803Z,67.12
2019-05-25T14:38:58.143Z,67.06
2019-05-25T14:41:30.885Z,66.96
2019-05-25T14:44:07.996Z,66.95
2019-05-25T14:46:43.492Z,66.91
2019-05-25T14:49:18.072Z,66.72
2019-05-25T14:51:51.279Z,66.69
2019-05-25T14:54:22.014Z,66.74
2019-05-25T14:56:54.852Z,66.78
2019-05-25T14:59:29.802Z,66.72
2019-05-25T15:02:02.895Z,66.65
2019-05-25T15:04:32.394Z,66.75
2019-05-25T15:07:05.085Z,66.71
2019-05-25T15:09:37.580Z,66.67
2019-05-25T15:12:10.366Z,66.71
2019-05-25T15:14:44.072Z,66.64
2019-05-25T15:17:14.369Z,66.64
2019-05-25T15:19:44.744Z,66.54
2019-05-25T15:22:15.440Z,66.52
2019-05-25T15:24:45.756Z,66.45
2019-05-25T15:27:19.319Z,66.28
2019-05-25T15:29:53.495Z,66.16
2019-05-25T15:32:26.018Z,65.96
2019-05-25T15:34:58.480Z,65.90
2019-05-25T15:37:28.857Z,65.76
2019-05-25T15:40:04.868Z,65.78
2019-05-25T15:42:36.343Z,65.77
2019-05-25T15:45:14.532Z,65.65
2019-05-25T15:47:44.919Z,65.56
2019-05-25T15:50:16.192Z,65.48
2019-05-25T15:52:46.517Z,65.32
2019-05-25T15:55:17.596Z,65.23
2019-05-25T15:57:51.519Z,65.14
2019-05-25T16:00:29.825Z,65.04
2019-05-25T16:03:01.498Z,64.98
2019-05-25T16:05:39.324Z,64.96
2019-05-25T16:08:10.564Z,64.90
2019-05-25T16:10:44.075Z,64.79
2019-05-25T16:13:14.857Z,64.71
2019-05-25T16:15:45.190Z,64.62
2019-05-25T16:18:16.553Z,64.51
2019-05-25T16:20:53.982Z,64.50
2019-05-25T16:23:24.282Z,64.39
2019-05-25T16:25:54.904Z,64.26
2019-05-25T16:28:29.413Z,64.18
2019-05-25T16:31:01.200Z,64.13
2019-05-25T16:33:31.519Z,64.04
2019-05-25T16:36:02.240Z,63.94
2019-05-25T16:38:34.758Z,63.88
2019-05-25T16:41:05.207Z,63.81
2019-05-25T16:43:36.938Z,63.77
2019-05-25T16:46:08.320Z,63.68
2019-05-25T16:48:38.932Z,63.58
2019-05-25T16:51:13.337Z,63.49
2019-05-25T16:53:45.596Z,63.42
2019-05-25T16:56:17.088Z,63.37
2019-05-25T16:58:49.780Z,63.27
2019-05-25T17:01:20.130Z,63.17
2019-05-25T17:03:51.571Z,63.10
2019-05-25T17:06:21.865Z,62.99
2019-05-25T17:08:56.019Z,62.92
2019-05-25T17:11:26.969Z,62.84
2019-05-25T17:13:57.571Z,62.75
2019-05-25T17:16:30.937Z,62.66
2019-05-25T17:19:01.870Z,62.60
2019-05-25T17:21:35.637Z,62.57
2019-05-25T17:24:08.821Z,62.50
2019-05-25T17:26:40.417Z,62.43
2019-05-25T17:29:13.341Z,62.38
2019-05-25T17:31:47.532Z,62.32
2019-05-25T17:34:18.670Z,62.25
2019-05-25T17:36:48.983Z,62.19
2019-05-25T17:39:22.313Z,62.16
2019-05-25T17:41:54.282Z,62.11
2019-05-25T17:44:25.647Z,62.07
2019-05-25T17:47:02.262Z,62.04
2019-05-25T17:49:32.823Z,61.97
2019-05-25T17:52:04.068Z,61.91
2019-05-25T17:54:34.382Z,61.87
2019-05-25T17:57:07.978Z,61.80
2019-05-25T17:59:39.649Z,61.75
2019-05-25T18:02:10.142Z,61.75
2019-05-25T18:04:42.397Z,61.70
2019-05-25T18:07:15.276Z,61.65
2019-05-25T18:09:47.967Z,61.61
2019-05-25T18:12:18.282Z,61.57
2019-05-25T18:14:50.333Z,61.53
2019-05-25T18:17:21.976Z,61.51
2019-05-25T18:19:52.576Z,61.47
2019-05-25T18:22:22.896Z,61.46
2019-05-25T18:24:53.183Z,61.40
2019-05-25T18:27:23.865Z,61.39
2019-05-25T18:29:54.175Z,61.35
2019-05-25T18:32:24.819Z,61.35
2019-05-25T18:34:55.154Z,61.31
2019-05-25T18:37:25.858Z,61.30
2019-05-25T18:40:00.408Z,61.29
2019-05-25T18:42:30.898Z,61.24
2019-05-25T18:45:04.998Z,61.21
2019-05-25T18:47:38.673Z,61.19
2019-05-25T18:50:09.327Z,61.17
2019-05-25T18:52:39.639Z,61.13
2019-05-25T18:55:10.838Z,61.11
2019-05-25T18:57:42.265Z,61.08
2019-05-25T19:00:12.746Z,61.06
2019-05-25T19:02:44.377Z,61.06
2019-05-25T19:05:19.148Z,61.05
2019-05-25T19:07:51.737Z,61.00
2019-05-25T19:10:24.621Z,60.99
2019-05-25T19:12:56.376Z,60.95
2019-05-25T19:15:31.179Z,60.97
2019-05-25T19:18:01.580Z,60.95
2019-05-25T19:20:34.321Z,60.90
2019-05-25T19:23:06.111Z,60.89
2019-05-25T19:25:36.619Z,60.90
2019-05-25T19:28:07.313Z,60.88
2019-05-25T19:30:37.685Z,60.86
2019-05-25T19:33:09.083Z,60.86
2019-05-25T19:35:41.531Z,60.85
2019-05-25T19:38:14.897Z,60.84
2019-05-25T19:40:47.241Z,60.84
2019-05-25T19:43:22.798Z,60.84
2019-05-25T19:45:57.227Z,60.83
2019-05-25T19:48:27.881Z,60.83
2019-05-25T19:50:58.201Z,60.82
2019-05-25T19:53:29.193Z,60.79
2019-05-25T19:55:59.490Z,60.80
2019-05-25T19:58:32.305Z,60.81
2019-05-25T20:01:03.112Z,60.78
2019-05-25T20:03:33.460Z,60.77
2019-05-25T20:06:05.191Z,60.77
2019-05-25T20:08:35.982Z,60.76
2019-05-25T20:11:06.665Z,60.75
2019-05-25T20:13:38.711Z,60.73
2019-05-25T20:16:09.394Z,60.74
2019-05-25T20:18:41.319Z,60.75
2019-05-25T20:21:13.061Z,60.74
2019-05-25T20:23:44.253Z,60.73
2019-05-25T20:26:15.586Z,60.73
2019-05-25T20:28:50.546Z,60.74
2019-05-25T20:31:20.541Z,60.74
2019-05-25T20:33:51.012Z,60.74
2019-05-25T20:36:21.357Z,60.74
2019-05-25T20:38:53.287Z,60.74
2019-05-25T20:41:23.899Z,60.75
2019-05-25T20:43:54.580Z,60.74
2019-05-25T20:46:25.039Z,60.74
2019-05-25T20:48:55.390Z,60.73
2019-05-25T20:51:28.250Z,60.74
2019-05-25T20:53:58.821Z,60.72
2019-05-25T20:56:29.163Z,60.73
2019-05-25T20:59:00.019Z,60.74
2019-05-25T21:01:32.341Z,60.74
2019-05-25T21:04:07.557Z,60.74
2019-05-25T21:06:40.404Z,60.72
2019-05-25T21:09:16.403Z,60.73
2019-05-25T21:11:43.583Z,60.75
2019-05-25T21:14:14.415Z,60.73
2019-05-25T21:16:44.735Z,60.72
2019-05-25T21:19:15.108Z,60.67
2019-05-25T21:21:47.302Z,60.64
2019-05-25T21:24:22.431Z,60.60
2019-05-25T21:26:52.747Z,60.60
2019-05-25T21:29:23.065Z,60.59
2019-05-25T21:31:55.231Z,60.60
2019-05-25T21:34:28.284Z,60.59
2019-05-25T21:36:58.810Z,60.59
2019-05-25T21:39:29.400Z,60.61
2019-05-25T21:42:04.728Z,60.61
2019-05-25T21:44:34.999Z,60.61
2019-05-25T21:47:25.810Z,60.63
2019-05-25T21:49:56.418Z,60.63
2019-05-25T21:52:26.737Z,60.63
2019-05-25T21:54:58.523Z,60.65
2019-05-25T21:57:28.822Z,60.67
2019-05-25T21:59:59.274Z,60.69
2019-05-25T22:02:32.233Z,60.69
2019-05-25T22:05:04.923Z,60.71
2019-05-25T22:07:35.468Z,60.74
2019-05-25T22:10:08.929Z,60.76
2019-05-25T22:12:40.384Z,60.76
2019-05-25T22:15:12.875Z,60.77
2019-05-25T22:17:43.202Z,60.80
2019-05-25T22:20:15.046Z,60.80
2019-05-25T22:22:45.423Z,60.83
2019-05-25T22:25:18.189Z,60.88
2019-05-25T22:27:49.901Z,60.90
2019-05-25T22:30:22.095Z,60.90
2019-05-25T22:32:52.487Z,60.94
2019-05-25T22:35:25.630Z,60.97
2019-05-25T22:37:58.358Z,60.98
2019-05-25T22:40:33.829Z,61.01
2019-05-25T22:43:05.489Z,61.04
2019-05-25T22:45:35.787Z,61.06
2019-05-25T22:48:06.138Z,61.08
2019-05-25T22:50:36.386Z,61.12
2019-05-25T22:53:07.071Z,61.14
2019-05-25T22:55:37.948Z,61.18
2019-05-25T22:58:08.270Z,61.20
2019-05-25T23:00:38.566Z,61.23
2019-05-25T23:03:13.729Z,61.25
2019-05-25T23:05:44.213Z,61.28
2019-05-25T23:08:14.806Z,61.31
2019-05-25T23:10:45.391Z,61.35
2019-05-25T23:13:16.035Z,61.39
2019-05-25T23:15:48.445Z,61.41
2019-05-25T23:18:18.721Z,61.43
2019-05-25T23:20:48.912Z,61.46
2019-05-25T23:23:22.009Z,61.50
2019-05-25T23:25:54.515Z,61.53
2019-05-25T23:28:24.851Z,61.55
2019-05-25T23:30:55.198Z,61.59
2019-05-25T23:33:25.954Z,61.65
2019-05-25T23:35:56.217Z,61.72
2019-05-25T23:38:26.606Z,61.74
2019-05-25T23:40:57.996Z,61.78
2019-05-25T23:43:29.729Z,61.81
2019-05-25T23:46:01.231Z,61.85
2019-05-25T23:48:31.514Z,61.89
2019-05-25T23:51:01.878Z,61.92
2019-05-25T23:53:33.744Z,61.96
2019-05-25T23:56:04.034Z,61.98
2019-05-25T23:58:34.673Z,62.05
